Terminal Aerodrome Forecast
Issued by NWS

Current Version | Previous Version | Text Only | Print | Product List | Glossary On
Versions: 1 2 3 4 5 6 7 8 9 10 11 12 13 14 15 16 17 18 19 20 21 22 23 24 25 26 27 28 29 30
000
FTUS41 KRNK 232344
TAFBCB
TAF
KBCB 232344Z 2400/2424 12007KT 3SM -RA BR OVC003 WS020/14040KT
      TEMPO 2402/2404 1SM RA BR OVC007
     FM240600 19010KT P6SM OVC020
     FM241400 21010G22KT P6SM BKN035
     FM241900 22015G30KT P6SM SCT035=

USA.gov is the U.S. government's official web portal to all federal, state and local government web resources and services.